createdAt,value
2019-05-16T00:01:51.033Z,99424.11
2019-05-16T00:04:23.176Z,99412.42
2019-05-16T00:06:54.823Z,99416.36
2019-05-16T00:09:28.589Z,99416.79
2019-05-16T00:12:00.435Z,99415.35
2019-05-16T00:14:32.290Z,99413.91
2019-05-16T00:17:04.495Z,99424.66
2019-05-16T00:19:38.119Z,99425.38
2019-05-16T00:22:09.991Z,99416.54
2019-05-16T00:24:41.790Z,99420.20
2019-05-16T00:27:13.542Z,99429.55
2019-05-16T00:29:45.673Z,99433.33
2019-05-16T00:32:19.109Z,99443.26
2019-05-16T00:34:51.392Z,99431.66
2019-05-16T00:37:23.391Z,99416.79
2019-05-16T00:39:54.847Z,99407.05
2019-05-16T00:42:28.672Z,99405.33
2019-05-16T00:45:01.033Z,99397.20
2019-05-16T00:47:32.944Z,99391.48
2019-05-16T00:50:05.159Z,99379.25
2019-05-16T00:52:39.114Z,99392.98
2019-05-16T00:55:10.822Z,99393.67
2019-05-16T00:57:43.212Z,99384.93
2019-05-16T01:00:18.049Z,99387.52
2019-05-16T01:02:49.551Z,99387.11
2019-05-16T01:05:21.733Z,99383.50
2019-05-16T01:07:53.593Z,99389.23
2019-05-16T01:10:25.592Z,99388.59
2019-05-16T01:12:58.461Z,99386.41
2019-05-16T01:15:30.564Z,99395.23
2019-05-16T01:18:02.558Z,99394.16
2019-05-16T01:20:34.566Z,99395.83
2019-05-16T01:23:08.734Z,99393.28
2019-05-16T01:25:39.932Z,99396.22
2019-05-16T01:28:11.680Z,99395.95
2019-05-16T01:30:43.722Z,99399.84
2019-05-16T01:33:15.502Z,99392.81
2019-05-16T01:35:47.948Z,99381.23
2019-05-16T01:38:20.088Z,99381.00
2019-05-16T01:40:53.222Z,99384.81
2019-05-16T01:43:24.890Z,99392.56
2019-05-16T01:45:57.822Z,99382.47
2019-05-16T01:48:31.945Z,99381.00
2019-05-16T01:51:03.581Z,99380.80
2019-05-16T01:53:35.154Z,99370.34
2019-05-16T01:56:08.570Z,99369.16
2019-05-16T01:58:40.218Z,99366.98
2019-05-16T02:01:15.710Z,99373.53
2019-05-16T02:03:48.123Z,99379.02
2019-05-16T02:06:20.186Z,99383.83
2019-05-16T02:08:51.779Z,99388.03
2019-05-16T02:11:23.564Z,99384.70
2019-05-16T02:13:58.591Z,99370.00
2019-05-16T02:16:31.073Z,99373.57
2019-05-16T02:19:02.679Z,99375.23
2019-05-16T02:21:34.711Z,99381.56
2019-05-16T02:24:08.687Z,99388.99
2019-05-16T02:26:40.289Z,99388.99
2019-05-16T02:29:13.762Z,99391.34
2019-05-16T02:31:45.508Z,99390.51
2019-05-16T02:34:17.578Z,99389.55
2019-05-16T02:37:10.275Z,99381.92
2019-05-16T02:39:30.324Z,99378.42
2019-05-16T02:42:02.074Z,99367.69
2019-05-16T02:44:33.912Z,99363.83
2019-05-16T02:47:05.871Z,99357.81
2019-05-16T02:49:41.623Z,99351.80
2019-05-16T02:52:11.326Z,99347.81
2019-05-16T02:54:43.159Z,99352.30
2019-05-16T02:57:15.016Z,99356.23
2019-05-16T02:59:47.121Z,99351.57
2019-05-16T03:02:20.529Z,99361.48
2019-05-16T03:04:52.500Z,99361.70
2019-05-16T03:07:37.569Z,99365.09
2019-05-16T03:10:01.488Z,99380.16
2019-05-16T03:12:34.375Z,99397.69
2019-05-16T03:15:07.114Z,99400.51
2019-05-16T03:17:41.633Z,99405.75
2019-05-16T03:20:14.120Z,99408.70
2019-05-16T03:22:52.008Z,99396.98
2019-05-16T03:25:22.473Z,99395.55
2019-05-16T03:27:54.294Z,99399.05
2019-05-16T03:30:26.309Z,99402.94
2019-05-16T03:33:03.833Z,99385.10
2019-05-16T03:35:34.209Z,99395.59
2019-05-16T03:38:06.251Z,99394.76
2019-05-16T03:40:41.029Z,99398.25
2019-05-16T03:43:12.098Z,99404.45
2019-05-16T03:45:44.375Z,99413.28
2019-05-16T03:48:16.055Z,99418.52
2019-05-16T03:50:50.493Z,99418.12
2019-05-16T03:53:22.673Z,99416.22
2019-05-16T03:55:54.790Z,99422.18
2019-05-16T03:58:26.229Z,99423.02
2019-05-16T04:01:01.820Z,99423.61
2019-05-16T04:03:33.223Z,99420.34
2019-05-16T04:06:05.008Z,99426.55
2019-05-16T04:08:36.788Z,99412.64
2019-05-16T04:11:11.370Z,99416.41
2019-05-16T04:13:41.800Z,99416.73
2019-05-16T04:16:13.794Z,99416.73
2019-05-16T04:18:45.486Z,99419.24
2019-05-16T04:21:18.690Z,99411.60
2019-05-16T04:23:50.769Z,99402.06
2019-05-16T04:26:22.774Z,99405.05
2019-05-16T04:28:54.799Z,99403.12
2019-05-16T04:31:26.535Z,99390.26
2019-05-16T04:34:01.120Z,99395.94
2019-05-16T04:36:32.724Z,99390.97
2019-05-16T04:39:07.553Z,99403.50
2019-05-16T04:41:40.972Z,99409.10
2019-05-16T04:44:12.851Z,99403.56
2019-05-16T04:46:44.500Z,99404.60
2019-05-16T04:49:16.401Z,99404.95
2019-05-16T04:51:51.368Z,99403.23
2019-05-16T04:54:21.919Z,99395.95
2019-05-16T04:56:53.483Z,99388.63
2019-05-16T04:59:25.442Z,99392.64
2019-05-16T05:01:57.253Z,99387.34
2019-05-16T05:04:30.564Z,99385.87
2019-05-16T05:07:02.869Z,99371.98
2019-05-16T05:09:34.498Z,99369.77
2019-05-16T05:12:06.446Z,99373.17
2019-05-16T05:14:41.450Z,99373.67
2019-05-16T05:17:12.294Z,99374.66
2019-05-16T05:19:45.594Z,99377.83
2019-05-16T05:22:17.150Z,99393.41
2019-05-16T05:24:50.775Z,99387.25
2019-05-16T05:27:22.889Z,99378.89
2019-05-16T05:29:54.644Z,99375.36
2019-05-16T05:32:26.810Z,99371.06
2019-05-16T05:34:59.914Z,99370.09
2019-05-16T05:37:32.190Z,99371.48
2019-05-16T05:40:05.226Z,99374.05
2019-05-16T05:42:39.938Z,99377.72
2019-05-16T05:45:13.299Z,99381.11
2019-05-16T05:47:45.596Z,99377.38
2019-05-16T05:50:20.223Z,99380.36
2019-05-16T05:52:51.511Z,99380.88
2019-05-16T05:55:23.132Z,99370.36
2019-05-16T05:57:55.090Z,99370.93
2019-05-16T06:00:30.134Z,99367.13
2019-05-16T06:03:00.729Z,99355.70
2019-05-16T06:05:32.697Z,99375.56
2019-05-16T06:08:04.537Z,99373.78
2019-05-16T06:10:36.343Z,99366.02
2019-05-16T06:13:10.957Z,99356.34
2019-05-16T06:15:44.693Z,99367.73
2019-05-16T06:18:16.520Z,99374.14
2019-05-16T06:20:51.255Z,99377.17
2019-05-16T06:23:22.578Z,99386.17
2019-05-16T06:25:54.740Z,99384.98
2019-05-16T06:28:26.288Z,99391.30
2019-05-16T06:31:01.416Z,99398.75
2019-05-16T06:33:31.771Z,99405.23
2019-05-16T06:36:03.818Z,99404.40
2019-05-16T06:38:35.830Z,99408.08
2019-05-16T06:41:07.449Z,99412.67
2019-05-16T06:43:39.995Z,99400.48
2019-05-16T06:46:12.754Z,99398.47
2019-05-16T06:48:44.196Z,99396.30
2019-05-16T06:51:16.071Z,99408.38
2019-05-16T06:53:49.829Z,99402.11
2019-05-16T06:56:21.377Z,99410.90
2019-05-16T06:58:53.731Z,99408.98
2019-05-16T07:01:29.652Z,99398.23
2019-05-16T07:04:01.117Z,99389.36
2019-05-16T07:06:51.744Z,99393.94
2019-05-16T07:09:10.336Z,99398.54
2019-05-16T07:11:41.457Z,99400.75
2019-05-16T07:14:13.735Z,99404.89
2019-05-16T07:16:45.800Z,99393.19
2019-05-16T07:19:17.864Z,99391.91
2019-05-16T07:21:50.787Z,99368.20
2019-05-16T07:24:23.119Z,99351.70
2019-05-16T07:26:54.815Z,99337.54
2019-05-16T07:29:27.767Z,99323.37
2019-05-16T07:32:01.088Z,99306.09
2019-05-16T07:34:32.961Z,99284.29
2019-05-16T07:37:04.981Z,99282.83
2019-05-16T07:39:38.662Z,99274.03
2019-05-16T07:42:11.407Z,99267.22
2019-05-16T07:44:43.263Z,99262.48
2019-05-16T07:47:14.941Z,99259.63
2019-05-16T07:49:46.945Z,99259.48
2019-05-16T07:52:20.895Z,99271.54
2019-05-16T07:54:52.279Z,99284.31
2019-05-16T07:57:24.315Z,99304.94
2019-05-16T08:00:00.320Z,99336.75
2019-05-16T08:02:40.375Z,99349.93
2019-05-16T08:05:14.826Z,99338.14
2019-05-16T08:07:50.828Z,99321.71
2019-05-16T08:10:37.122Z,99323.09
2019-05-16T08:13:03.316Z,99329.89
2019-05-16T08:15:35.071Z,99330.69
2019-05-16T08:18:06.951Z,99323.22
2019-05-16T08:20:41.274Z,99330.41
2019-05-16T08:23:13.426Z,99339.27
2019-05-16T08:25:45.586Z,99348.07
2019-05-16T08:28:20.518Z,99351.69
2019-05-16T08:30:52.851Z,99343.27
2019-05-16T08:33:26.931Z,99341.77
2019-05-16T08:36:04.698Z,99343.06
2019-05-16T08:38:33.877Z,99333.22
2019-05-16T08:41:11.986Z,99334.55
2019-05-16T08:43:41.286Z,99338.97
2019-05-16T08:46:12.596Z,99333.98
2019-05-16T08:48:44.387Z,99323.88
2019-05-16T08:51:16.165Z,99316.72
2019-05-16T08:53:50.438Z,99315.68
2019-05-16T08:56:22.557Z,99314.07
2019-05-16T08:58:55.083Z,99310.99
2019-05-16T09:01:27.197Z,99315.45
2019-05-16T09:04:01.388Z,99305.80
2019-05-16T09:06:34.047Z,99309.31
2019-05-16T09:10:19.015Z,99308.66
2019-05-16T09:11:45.112Z,99309.55
2019-05-16T09:14:17.141Z,99302.27
2019-05-16T09:16:50.580Z,99295.66
2019-05-16T09:19:27.531Z,99292.67
2019-05-16T09:21:59.305Z,99282.45
2019-05-16T09:24:31.256Z,99278.70
2019-05-16T09:27:05.131Z,99272.95
2019-05-16T09:29:37.746Z,99265.07
2019-05-16T09:32:17.112Z,99267.09
2019-05-16T09:34:43.686Z,99261.41
2019-05-16T09:37:17.714Z,99258.28
2019-05-16T09:39:49.021Z,99254.66
2019-05-16T09:42:21.297Z,99258.38
2019-05-16T09:44:53.257Z,99260.73
2019-05-16T09:47:27.899Z,99257.24
2019-05-16T09:49:58.486Z,99259.95
2019-05-16T09:52:30.628Z,99256.67
2019-05-16T09:55:03.115Z,99250.77
2019-05-16T09:57:37.602Z,99256.43
2019-05-16T10:00:13.526Z,99250.92
2019-05-16T10:02:47.509Z,99252.30
2019-05-16T10:05:21.309Z,99249.23
2019-05-16T10:08:10.223Z,99246.31
2019-05-16T10:10:42.226Z,99252.93
2019-05-16T10:13:18.303Z,99245.80
2019-05-16T10:15:50.455Z,99250.66
2019-05-16T10:18:22.050Z,99254.20
2019-05-16T10:20:58.974Z,99255.66
2019-05-16T10:23:30.590Z,99264.67
2019-05-16T10:26:05.026Z,99275.09
2019-05-16T10:28:38.372Z,99267.95
2019-05-16T10:31:12.588Z,99264.73
2019-05-16T10:33:47.665Z,99256.34
2019-05-16T10:36:21.590Z,99248.44
2019-05-16T10:38:59.043Z,99247.80
2019-05-16T10:41:27.469Z,99261.11
2019-05-16T10:44:00.680Z,99261.73
2019-05-16T10:46:32.782Z,99275.05
2019-05-16T10:49:05.105Z,99270.44
2019-05-16T10:51:37.858Z,99261.48
2019-05-16T10:54:18.535Z,99265.18
2019-05-16T10:56:49.951Z,99264.34
2019-05-16T10:59:54.581Z,99260.97
2019-05-16T11:02:27.546Z,99269.58
2019-05-16T11:05:22.624Z,99272.50
2019-05-16T11:07:38.414Z,99266.20
2019-05-16T11:10:21.875Z,99264.25
2019-05-16T11:13:02.140Z,99272.48
2019-05-16T11:15:42.109Z,99268.66
2019-05-16T11:18:17.403Z,99263.27
2019-05-16T11:20:59.557Z,99263.36
2019-05-16T11:23:31.913Z,99265.61
2019-05-16T11:26:03.993Z,99265.50
2019-05-16T11:28:36.985Z,99267.08
2019-05-16T11:31:09.229Z,99257.87
2019-05-16T11:33:41.276Z,99259.03
2019-05-16T11:36:16.567Z,99265.41
2019-05-16T11:38:48.000Z,99269.73
2019-05-16T11:41:19.923Z,99264.45
2019-05-16T11:43:54.203Z,99274.00
2019-05-16T11:46:28.175Z,99283.87
2019-05-16T11:49:00.112Z,99299.05
2019-05-16T11:51:32.024Z,99306.33
2019-05-16T11:54:06.771Z,99307.14
2019-05-16T11:56:41.955Z,99309.81
2019-05-16T11:59:14.395Z,99312.39
2019-05-16T12:01:47.414Z,99301.89
2019-05-16T12:04:20.078Z,99306.08
2019-05-16T12:06:52.027Z,99313.97
2019-05-16T12:09:33.474Z,99315.11
2019-05-16T12:12:04.241Z,99307.56
2019-05-16T12:14:37.260Z,99321.10
2019-05-16T12:17:08.780Z,99319.78
2019-05-16T12:19:43.909Z,99327.92
2019-05-16T12:22:14.436Z,99327.89
2019-05-16T12:24:47.709Z,99325.25
2019-05-16T12:27:20.046Z,99329.75
2019-05-16T12:29:59.613Z,99338.75
2019-05-16T12:32:28.393Z,99335.01
2019-05-16T12:35:01.443Z,99334.47
2019-05-16T12:37:37.227Z,99345.92
2019-05-16T12:40:10.095Z,99345.16
2019-05-16T12:42:41.571Z,99352.21
2019-05-16T12:45:13.590Z,99345.48
2019-05-16T12:47:47.253Z,99342.98
2019-05-16T12:50:19.848Z,99359.51
2019-05-16T12:52:51.691Z,99355.39
2019-05-16T12:55:24.088Z,99351.06
2019-05-16T12:58:11.839Z,99361.36
2019-05-16T13:00:29.924Z,99349.88
2019-05-16T13:03:01.723Z,99364.84
2019-05-16T13:05:37.575Z,99360.05
2019-05-16T13:08:09.812Z,99360.16
2019-05-16T13:10:41.379Z,99360.59
2019-05-16T13:13:13.531Z,99359.23
2019-05-16T13:15:47.519Z,99362.80
2019-05-16T13:18:18.515Z,99363.20
2019-05-16T13:20:50.530Z,99363.20
2019-05-16T13:23:22.009Z,99369.95
2019-05-16T13:25:57.479Z,99368.61
2019-05-16T13:28:28.812Z,99364.37
2019-05-16T13:31:00.987Z,99365.78
2019-05-16T13:33:32.670Z,99368.73
2019-05-16T13:36:04.260Z,99376.58
2019-05-16T13:39:08.047Z,99375.58
2019-05-16T13:41:48.057Z,99370.91
2019-05-16T13:44:34.182Z,99382.55
2019-05-16T13:47:07.677Z,99373.93
2019-05-16T13:49:40.105Z,99374.00
2019-05-16T13:52:12.750Z,99369.39
2019-05-16T13:54:45.764Z,99365.16
2019-05-16T13:57:18.447Z,99366.83
2019-05-16T13:59:50.814Z,99360.61
2019-05-16T14:02:23.165Z,99358.82
2019-05-16T14:04:57.472Z,99356.65
2019-05-16T14:07:29.399Z,99358.29
2019-05-16T14:10:01.303Z,99355.66
2019-05-16T14:12:36.489Z,99355.00
2019-05-16T14:15:09.065Z,99349.73
2019-05-16T14:17:41.017Z,99352.20
2019-05-16T14:20:15.042Z,99357.62
2019-05-16T14:22:48.040Z,99363.89
2019-05-16T14:25:23.034Z,99366.73
2019-05-16T14:27:56.819Z,99361.58
2019-05-16T14:30:28.763Z,99357.95
2019-05-16T14:33:02.498Z,99354.27
2019-05-16T14:35:34.812Z,99356.26
2019-05-16T14:38:06.715Z,99355.61
2019-05-16T14:40:50.504Z,99357.84
2019-05-16T14:43:22.128Z,99346.37
2019-05-16T14:45:54.079Z,99351.20
2019-05-16T14:48:27.857Z,99352.64
2019-05-16T14:50:59.138Z,99349.58
2019-05-16T14:53:31.404Z,99353.55
2019-05-16T14:56:03.493Z,99342.25
2019-05-16T14:58:37.794Z,99346.41
2019-05-16T15:01:09.321Z,99350.03
2019-05-16T15:03:42.967Z,99345.69
2019-05-16T15:06:17.975Z,99346.65
2019-05-16T15:08:48.937Z,99346.30
2019-05-16T15:11:20.474Z,99345.72
2019-05-16T15:13:52.426Z,99345.69
2019-05-16T15:16:24.283Z,99351.26
2019-05-16T15:18:57.548Z,99357.86
2019-05-16T15:21:29.520Z,99355.51
2019-05-16T15:24:01.298Z,99359.12
2019-05-16T15:26:33.263Z,99365.02
2019-05-16T15:29:08.214Z,99364.53
2019-05-16T15:31:39.603Z,99363.98
2019-05-16T15:34:11.724Z,99359.41
2019-05-16T15:36:43.306Z,99358.44
2019-05-16T15:39:16.959Z,99350.27
2019-05-16T15:41:50.671Z,99344.98
2019-05-16T15:44:27.221Z,99346.98
2019-05-16T15:46:59.976Z,99354.13
2019-05-16T15:49:37.688Z,99345.66
2019-05-16T15:52:11.269Z,99346.42
2019-05-16T15:54:45.193Z,99349.69
2019-05-16T15:57:17.727Z,99345.39
2019-05-16T15:59:49.910Z,99342.12
2019-05-16T16:02:22.656Z,99341.83
2019-05-16T16:04:57.431Z,99338.78
2019-05-16T16:07:29.489Z,99346.56
2019-05-16T16:10:06.833Z,99348.41
2019-05-16T16:12:47.743Z,99355.57
2019-05-16T16:15:20.422Z,99357.20
2019-05-16T16:17:52.239Z,99362.12
2019-05-16T16:20:28.086Z,99363.78
2019-05-16T16:23:00.231Z,99363.04
2019-05-16T16:25:32.345Z,99365.08
2019-05-16T16:28:07.130Z,99369.05
2019-05-16T16:30:39.132Z,99375.66
2019-05-16T16:33:25.147Z,99373.25
2019-05-16T16:35:57.554Z,99362.63
2019-05-16T16:38:32.497Z,99356.98
2019-05-16T16:41:18.193Z,99352.77
2019-05-16T16:43:53.594Z,99347.50
2019-05-16T16:46:40.778Z,99341.57
2019-05-16T16:49:18.649Z,99351.30
2019-05-16T16:51:51.288Z,99354.86
2019-05-16T16:54:58.022Z,99353.17
2019-05-16T16:57:31.320Z,99357.94
2019-05-16T17:00:08.088Z,99365.45
2019-05-16T17:06:18.175Z,99366.90
2019-05-16T17:13:13.415Z,99361.39
2019-05-16T17:16:02.062Z,99355.36
2019-05-16T17:19:13.242Z,99366.78
2019-05-16T17:22:21.658Z,99361.82
2019-05-16T17:25:47.808Z,99360.27
2019-05-16T17:28:17.553Z,99360.67
2019-05-16T17:30:49.570Z,99354.00
2019-05-16T17:33:21.578Z,99353.23
2019-05-16T17:35:53.506Z,99352.23
2019-05-16T17:39:19.571Z,99353.94
2019-05-16T17:46:36.842Z,99356.75
2019-05-16T17:49:26.693Z,99361.95
2019-05-16T17:56:48.726Z,99359.02
2019-05-16T17:59:27.650Z,99356.42
2019-05-16T18:02:12.862Z,99362.66
2019-05-16T18:04:47.128Z,99370.77
2019-05-16T18:07:20.727Z,99370.20
2019-05-16T18:09:56.836Z,99378.44
2019-05-16T18:12:28.958Z,99378.92
2019-05-16T18:15:08.410Z,99378.66
2019-05-16T18:17:46.780Z,99377.73
2019-05-16T18:20:22.501Z,99373.34
2019-05-16T18:22:56.961Z,99375.50
2019-05-16T18:25:36.840Z,99369.66
2019-05-16T18:28:12.133Z,99377.78
2019-05-16T18:30:47.075Z,99376.97
2019-05-16T18:33:21.552Z,99378.95
2019-05-16T18:35:57.978Z,99380.62
2019-05-16T18:38:30.878Z,99384.77
2019-05-16T18:41:07.808Z,99392.30
2019-05-16T18:43:40.185Z,99387.69
2019-05-16T18:46:12.126Z,99388.66
2019-05-16T18:48:46.992Z,99387.95
2019-05-16T18:51:18.586Z,99386.30
2019-05-16T18:53:50.857Z,99388.96
2019-05-16T18:56:27.169Z,99384.89
2019-05-16T18:58:59.141Z,99387.23
2019-05-16T19:01:31.601Z,99397.14
2019-05-16T19:04:06.705Z,99395.25
2019-05-16T19:06:37.910Z,99387.62
2019-05-16T19:09:10.563Z,99402.68
2019-05-16T19:11:52.735Z,99401.66
2019-05-16T19:14:28.663Z,99392.64
2019-05-16T19:17:00.650Z,99396.94
2019-05-16T19:19:37.596Z,99397.00
2019-05-16T19:22:10.152Z,99400.42
2019-05-16T19:24:48.352Z,99405.00
2019-05-16T19:27:23.517Z,99411.92
2019-05-16T19:29:58.795Z,99405.13
2019-05-16T19:32:31.715Z,99411.75
2019-05-16T19:35:03.987Z,99405.44
2019-05-16T19:37:40.378Z,99407.87
2019-05-16T19:40:11.463Z,99402.03
2019-05-16T19:42:47.149Z,99399.34
2019-05-16T19:45:19.341Z,99394.74
2019-05-16T19:47:50.956Z,99396.53
2019-05-16T19:50:26.791Z,99397.31
2019-05-16T19:52:58.977Z,99393.55
2019-05-16T19:55:30.641Z,99391.45
2019-05-16T19:58:03.063Z,99398.86
2019-05-16T20:00:37.173Z,99402.16
2019-05-16T20:03:08.254Z,99399.98
2019-05-16T20:05:40.282Z,99395.29
2019-05-16T20:08:12.721Z,99389.91
2019-05-16T20:10:44.271Z,99385.87
2019-05-16T20:13:16.589Z,99381.32
2019-05-16T20:15:49.059Z,99381.55
2019-05-16T20:18:21.012Z,99374.70
2019-05-16T20:20:56.769Z,99377.67
2019-05-16T20:23:28.827Z,99372.36
2019-05-16T20:26:00.674Z,99368.23
2019-05-16T20:28:32.495Z,99371.81
2019-05-16T20:31:04.043Z,99371.11
2019-05-16T20:33:37.622Z,99373.19
2019-05-16T20:36:09.789Z,99370.41
2019-05-16T20:38:41.958Z,99360.48
2019-05-16T20:41:13.593Z,99363.52
2019-05-16T20:43:47.354Z,99364.35
2019-05-16T20:46:19.124Z,99354.87
2019-05-16T20:48:51.199Z,99357.02
2019-05-16T20:51:23.319Z,99349.39
2019-05-16T20:53:57.739Z,99350.09
2019-05-16T20:56:28.911Z,99342.56
2019-05-16T20:59:00.931Z,99351.51
2019-05-16T21:01:33.007Z,99345.97
2019-05-16T21:04:07.023Z,99339.75
2019-05-16T21:06:38.768Z,99339.59
2019-05-16T21:09:46.350Z,99339.59
2019-05-16T21:12:19.258Z,99344.02
2019-05-16T21:14:51.216Z,99336.00
2019-05-16T21:17:23.668Z,99333.80
2019-05-16T21:19:57.700Z,99333.53
2019-05-16T21:22:32.161Z,99340.36
2019-05-16T21:25:05.135Z,99340.64
2019-05-16T21:27:38.535Z,99338.21
2019-05-16T21:30:11.223Z,99342.05
2019-05-16T21:32:42.919Z,99339.23
2019-05-16T21:35:15.094Z,99342.31
2019-05-16T21:37:46.972Z,99332.00
2019-05-16T21:40:19.193Z,99335.20
2019-05-16T21:42:51.247Z,99330.01
2019-05-16T21:45:22.810Z,99323.53
2019-05-16T21:47:56.780Z,99319.91
2019-05-16T21:50:28.338Z,99318.34
2019-05-16T21:53:00.606Z,99319.17
2019-05-16T21:55:32.873Z,99310.52
2019-05-16T21:58:04.642Z,99309.20
2019-05-16T22:00:43.840Z,99307.98
2019-05-16T22:03:16.148Z,99311.09
2019-05-16T22:05:48.505Z,99311.31
2019-05-16T22:08:20.133Z,99314.20
2019-05-16T22:10:51.889Z,99311.83
2019-05-16T22:13:24.348Z,99311.71
2019-05-16T22:15:57.019Z,99311.71
2019-05-16T22:18:30.228Z,99314.95
2019-05-16T22:21:11.828Z,99310.66
2019-05-16T22:23:43.734Z,99311.71
2019-05-16T22:26:16.841Z,99314.80
2019-05-16T22:28:51.822Z,99309.79
2019-05-16T22:31:26.902Z,99307.84
2019-05-16T22:34:01.379Z,99296.06
2019-05-16T22:36:37.995Z,99296.12
2019-05-16T22:39:12.555Z,99296.90
2019-05-16T22:41:46.492Z,99302.83
2019-05-16T22:44:18.022Z,99307.42
2019-05-16T22:46:50.288Z,99310.58
2019-05-16T22:49:39.775Z,99302.85
2019-05-16T22:52:12.189Z,99304.73
2019-05-16T22:54:44.305Z,99302.72
2019-05-16T22:57:17.581Z,99307.56
2019-05-16T22:59:50.172Z,99308.53
2019-05-16T23:02:22.240Z,99303.97
2019-05-16T23:04:53.812Z,99306.45
2019-05-16T23:07:27.475Z,99310.66
2019-05-16T23:09:59.815Z,99302.02
2019-05-16T23:12:31.931Z,99297.78
2019-05-16T23:15:06.437Z,99303.39
2019-05-16T23:17:37.793Z,99299.09
2019-05-16T23:20:09.867Z,99302.00
2019-05-16T23:22:41.929Z,99310.88
2019-05-16T23:25:13.950Z,99311.23
2019-05-16T23:27:47.442Z,99312.41
2019-05-16T23:30:19.873Z,99314.48
2019-05-16T23:32:51.663Z,99307.58
2019-05-16T23:35:23.655Z,99308.89
2019-05-16T23:37:56.977Z,99314.05
2019-05-16T23:40:29.569Z,99310.05
2019-05-16T23:43:01.288Z,99310.58
2019-05-16T23:45:33.222Z,99311.53
2019-05-16T23:48:09.539Z,99309.34
2019-05-16T23:50:38.587Z,99293.98
2019-05-16T23:53:10.719Z,99289.04
2019-05-16T23:55:43.395Z,99286.76
2019-05-16T23:58:15.759Z,99281.98
